Tewksbury, MA

5:51 PM EDT on August 27, 2015 (GMT -0400)
Rogers Park | | Change Station
CLOSE
Current Station
Personal Weather Station
Location: Tewksbury, MA
Elevation: 131 ft
Nearby Weather Stations

Elev 131 ft 42.61 °N, 71.26 °W | Updated 13 seconds ago

Overcast
Overcast
77.0 °F
Feels Like 79 °F
N
1.0
Wind Variable Wind from WSW
Gusts 3.0 mph

Today
High -- | Low -- °F
--% Chance of Precip.
Yesterday
High -- | Low -- °F
Precip. -- in
6:04 AM 7:28 PM
Waxing Gibbous, 95% visible
Pressure 29.98 in
Visibility 10.0 miles
Clouds Few 6500 ft
Mostly Cloudy 8500 ft
Heat Index 79 °F
Dew Point 59 °F
Humidity 53%
Rainfall 0.00 in
Snow Depth Not available.
UV 1 out of 12
Pollen 10.10 out of 12
Air Quality Not available.
Flu Activity Not available.
METAR KLWM 272054Z 28010KT 10SM FEW065 BKN085 26/13 A2998 RMK AO2 SLP152 T02610128 55001
Pressure 29.98 in
Visibility 10.0 miles
Clouds Few 6500 ft
Mostly Cloudy 8500 ft
Heat Index 79 °F
Dew Point 59 °F
Humidity 53%
Rainfall 0.00 in
Snow Depth Not available.
UV 1 out of 12
Pollen 10.10 out of 12
Air Quality Not available.
Flu Activity Not available.
METAR KLWM 272054Z 28010KT 10SM FEW065 BKN085 26/13 A2998 RMK AO2 SLP152 T02610128 55001

10-Day Weather Forecast

×

Almanac

Astronomy

Aug. 27, 2015 Rise Set
Actual Time
Civil Twilight
Nautical Twilight
Astronomical Twilight
Moon
Length of Visible Light
Length of Day
Tomorrow will be .
, % of the Moon is Illuminated

Today's Extremes

State Highs State Lows

Community

WunderPhotos

Upload Photos

1,850,238 photos uploaded!

WunderBlogs® & News

Nearby

Air Quality

  Air Quality AQ Index Pollutant
Not available.

Snow Depth

Station Depth Elevation

Earthquake Activity

City Distance Mag. Time & Date
Minimum magnitude displayed is 2.5.

Coastal Water Temperatures

Place Temperature

Stations

Nearby Weather Stations

Station Location Temp. Windchill Dew Point Humidity Wind Precip. Elev Updated Type